sensor_id;sensor_type;location;lat;lon;timestamp;pressure;altitude;pressure_sealevel;temperature;humidity
18819;BME280;9537;45.594;9.294;2022-07-30T00:01:02;99510.97;;;22.49;75.39
18819;BME280;9537;45.594;9.294;2022-07-30T00:02:06;99511.78;;;22.50;75.43
18819;BME280;9537;45.594;9.294;2022-07-30T00:03:06;99520.72;;;22.56;75.18
18819;BME280;9537;45.594;9.294;2022-07-30T00:04:09;99518.03;;;22.56;75.10
18819;BME280;9537;45.594;9.294;2022-07-30T00:05:10;99508.88;;;22.57;74.98
18819;BME280;9537;45.594;9.294;2022-07-30T00:06:12;99512.88;;;22.54;74.73
18819;BME280;9537;45.594;9.294;2022-07-30T00:07:14;99514.19;;;22.52;74.75
18819;BME280;9537;45.594;9.294;2022-07-30T00:08:16;99511.50;;;22.52;74.98
18819;BME280;9537;45.594;9.294;2022-07-30T00:09:17;99511.50;;;22.52;74.68
18819;BME280;9537;45.594;9.294;2022-07-30T00:10:19;99509.09;;;22.50;74.57
18819;BME280;9537;45.594;9.294;2022-07-30T00:11:22;99507.19;;;22.51;74.66
18819;BME280;9537;45.594;9.294;2022-07-30T00:12:24;99508.78;;;22.46;74.83
18819;BME280;9537;45.594;9.294;2022-07-30T00:13:25;99501.81;;;22.51;74.76
18819;BME280;9537;45.594;9.294;2022-07-30T00:14:27;99499.88;;;22.46;74.89
18819;BME280;9537;45.594;9.294;2022-07-30T00:15:28;99503.41;;;22.46;74.77
18819;BME280;9537;45.594;9.294;2022-07-30T00:16:30;99497.19;;;22.46;74.82
18819;BME280;9537;45.594;9.294;2022-07-30T00:17:32;99490.19;;;22.45;74.63
18819;BME280;9537;45.594;9.294;2022-07-30T00:18:34;99493.16;;;22.43;74.28
18819;BME280;9537;45.594;9.294;2022-07-30T00:19:35;99499.84;;;22.41;74.27
18819;BME280;9537;45.594;9.294;2022-07-30T00:20:37;99503.28;;;22.36;74.41
18819;BME280;9537;45.594;9.294;2022-07-30T00:21:39;99499.53;;;22.37;74.46
18819;BME280;9537;45.594;9.294;2022-07-30T00:22:41;99497.91;;;22.36;74.36
18819;BME280;9537;45.594;9.294;2022-07-30T00:23:42;99498.13;;;22.30;74.47
18819;BME280;9537;45.594;9.294;2022-07-30T00:24:44;99493.56;;;22.30;74.51
18819;BME280;9537;45.594;9.294;2022-07-30T00:25:45;99503.22;;;22.31;74.78
18819;BME280;9537;45.594;9.294;2022-07-30T00:26:47;99497.84;;;22.31;75.17
18819;BME280;9537;45.594;9.294;2022-07-30T00:27:48;99499.75;;;22.31;75.30
18819;BME280;9537;45.594;9.294;2022-07-30T00:28:50;99498.13;;;22.30;75.83
18819;BME280;9537;45.594;9.294;2022-07-30T00:29:51;99499.16;;;22.29;76.03
18819;BME280;9537;45.594;9.294;2022-07-30T00:30:53;99501.63;;;22.30;76.34
18819;BME280;9537;45.594;9.294;2022-07-30T00:31:54;99492.22;;;22.33;76.28
18819;BME280;9537;45.594;9.294;2022-07-30T00:32:57;99493.03;;;22.33;76.44
18819;BME280;9537;45.594;9.294;2022-07-30T00:33:58;99490.41;;;22.38;76.35
18819;BME280;9537;45.594;9.294;2022-07-30T00:35:00;99491.44;;;22.37;76.63
18819;BME280;9537;45.594;9.294;2022-07-30T00:36:01;99485.53;;;22.35;76.58
18819;BME280;9537;45.594;9.294;2022-07-30T00:37:03;99490.91;;;22.35;76.78
18819;BME280;9537;45.594;9.294;2022-07-30T00:38:04;99490.66;;;22.37;77.02
18819;BME280;9537;45.594;9.294;2022-07-30T00:39:06;99493.78;;;22.29;76.89
18819;BME280;9537;45.594;9.294;2022-07-30T00:40:09;99494.63;;;22.29;76.95
18819;BME280;9537;45.594;9.294;2022-07-30T00:41:11;99489.78;;;22.31;76.58
18819;BME280;9537;45.594;9.294;2022-07-30T00:42:12;99494.94;;;22.33;76.23
18819;BME280;9537;45.594;9.294;2022-07-30T00:43:14;99490.41;;;22.38;75.49
18819;BME280;9537;45.594;9.294;2022-07-30T00:44:15;99490.94;;;22.40;75.22
18819;BME280;9537;45.594;9.294;2022-07-30T00:45:17;99496.91;;;22.42;74.66
18819;BME280;9537;45.594;9.294;2022-07-30T00:46:18;99497.16;;;22.41;74.59
18819;BME280;9537;45.594;9.294;2022-07-30T00:47:20;99497.09;;;22.36;74.64
18819;BME280;9537;45.594;9.294;2022-07-30T00:48:23;99496.31;;;22.35;74.66
18819;BME280;9537;45.594;9.294;2022-07-30T00:49:25;99494.66;;;22.34;74.58
18819;BME280;9537;45.594;9.294;2022-07-30T00:50:26;99491.97;;;22.34;74.43
18819;BME280;9537;45.594;9.294;2022-07-30T00:51:28;99501.06;;;22.28;74.72
18819;BME280;9537;45.594;9.294;2022-07-30T00:52:29;99501.06;;;22.28;74.73
18819;BME280;9537;45.594;9.294;2022-07-30T00:53:33;99494.81;;;22.22;75.14
18819;BME280;9537;45.594;9.294;2022-07-30T00:54:34;99495.63;;;22.23;75.34
18819;BME280;9537;45.594;9.294;2022-07-30T00:55:36;99499.94;;;22.24;75.59
18819;BME280;9537;45.594;9.294;2022-07-30T00:56:37;99499.94;;;22.24;75.80
18819;BME280;9537;45.594;9.294;2022-07-30T00:57:40;99501.25;;;22.21;76.23
18819;BME280;9537;45.594;9.294;2022-07-30T00:58:41;99500.47;;;22.21;76.15
18819;BME280;9537;45.594;9.294;2022-07-30T00:59:43;99499.09;;;22.18;76.41
18819;BME280;9537;45.594;9.294;2022-07-30T01:00:44;99503.38;;;22.19;76.39
18819;BME280;9537;45.594;9.294;2022-07-30T01:01:48;99499.28;;;22.17;76.38
18819;BME280;9537;45.594;9.294;2022-07-30T01:02:49;99496.03;;;22.15;76.21
18819;BME280;9537;45.594;9.294;2022-07-30T01:03:53;99489.38;;;22.17;76.26
18819;BME280;9537;45.594;9.294;2022-07-30T01:04:54;99495.78;;;22.16;76.41
18819;BME280;9537;45.594;9.294;2022-07-30T01:05:56;99500.47;;;22.21;76.42
18819;BME280;9537;45.594;9.294;2022-07-30T01:06:56;99497.78;;;22.21;76.44
18819;BME280;9537;45.594;9.294;2022-07-30T01:07:58;99505.28;;;22.19;76.43
18819;BME280;9537;45.594;9.294;2022-07-30T01:08:59;99503.94;;;22.21;76.38
18819;BME280;9537;45.594;9.294;2022-07-30T01:10:03;99510.13;;;22.22;76.24
18819;BME280;9537;45.594;9.294;2022-07-30T01:11:04;99501.84;;;22.23;76.28
18819;BME280;9537;45.594;9.294;2022-07-30T01:12:07;99499.69;;;22.25;75.89
18819;BME280;9537;45.594;9.294;2022-07-30T01:13:10;99497.25;;;22.24;76.08
18819;BME280;9537;45.594;9.294;2022-07-30T01:14:11;99500.75;;;22.24;76.05
18819;BME280;9537;45.594;9.294;2022-07-30T01:15:13;99497.25;;;22.24;76.23
18819;BME280;9537;45.594;9.294;2022-07-30T01:16:16;99496.69;;;22.22;76.58
18819;BME280;9537;45.594;9.294;2022-07-30T01:17:17;99497.25;;;22.24;76.74
18819;BME280;9537;45.594;9.294;2022-07-30T01:18:21;99499.94;;;22.24;76.71
18819;BME280;9537;45.594;9.294;2022-07-30T01:19:27;99498.06;;;22.24;76.54
18819;BME280;9537;45.594;9.294;2022-07-30T01:20:56;99493.75;;;22.23;75.90
18819;BME280;9537;45.594;9.294;2022-07-30T01:22:07;99497.78;;;22.21;75.83
18819;BME280;9537;45.594;9.294;2022-07-30T01:23:15;99498.00;;;22.19;75.78
18819;BME280;9537;45.594;9.294;2022-07-30T01:24:26;99498.28;;;22.18;76.04
18819;BME280;9537;45.594;9.294;2022-07-30T01:25:47;99493.19;;;22.21;75.93
18819;BME280;9537;45.594;9.294;2022-07-30T01:26:50;99497.50;;;22.22;75.93
18819;BME280;9537;45.594;9.294;2022-07-30T01:27:55;99502.88;;;22.22;76.00
18819;BME280;9537;45.594;9.294;2022-07-30T01:29:00;99502.88;;;22.22;76.46
18819;BME280;9537;45.594;9.294;2022-07-30T01:30:04;99497.25;;;22.24;76.29
18819;BME280;9537;45.594;9.294;2022-07-30T01:31:09;99497.00;;;22.25;76.38
18819;BME280;9537;45.594;9.294;2022-07-30T01:32:14;99495.09;;;22.26;76.55
18819;BME280;9537;45.594;9.294;2022-07-30T01:33:16;99493.50;;;22.25;76.76
18819;BME280;9537;45.594;9.294;2022-07-30T01:34:19;99489.19;;;22.24;77.11
18819;BME280;9537;45.594;9.294;2022-07-30T01:35:23;99492.69;;;22.24;77.19
18819;BME280;9537;45.594;9.294;2022-07-30T01:36:26;99488.69;;;22.27;77.17
18819;BME280;9537;45.594;9.294;2022-07-30T01:37:29;99490.06;;;22.30;77.63
18819;BME280;9537;45.594;9.294;2022-07-30T01:38:33;99492.19;;;22.27;77.98
18819;BME280;9537;45.594;9.294;2022-07-30T01:39:37;99489.50;;;22.27;77.58
18819;BME280;9537;45.594;9.294;2022-07-30T01:40:41;99494.06;;;22.27;76.90
18819;BME280;9537;45.594;9.294;2022-07-30T01:41:44;99493.50;;;22.25;75.95
18819;BME280;9537;45.594;9.294;2022-07-30T01:42:49;99493.25;;;22.26;75.58
18819;BME280;9537;45.594;9.294;2022-07-30T01:43:54;99483.16;;;22.17;75.56
18819;BME280;9537;45.594;9.294;2022-07-30T01:44:57;99482.28;;;22.11;75.60
18819;BME280;9537;45.594;9.294;2022-07-30T01:46:00;99486.28;;;22.09;75.54
18819;BME280;9537;45.594;9.294;2022-07-30T01:47:02;99483.06;;;22.07;75.86
18819;BME280;9537;45.594;9.294;2022-07-30T01:48:07;99476.31;;;22.04;76.21
18819;BME280;9537;45.594;9.294;2022-07-30T01:49:09;99478.50;;;22.07;76.13
18819;BME280;9537;45.594;9.294;2022-07-30T01:50:13;99486.78;;;22.05;76.18
18819;BME280;9537;45.594;9.294;2022-07-30T01:51:15;99479.50;;;22.01;76.44
18819;BME280;9537;45.594;9.294;2022-07-30T01:52:19;99482.72;;;22.03;76.05
18819;BME280;9537;45.594;9.294;2022-07-30T01:53:24;99484.03;;;22.00;75.77
18819;BME280;9537;45.594;9.294;2022-07-30T01:54:27;99482.19;;;22.01;75.67
18819;BME280;9537;45.594;9.294;2022-07-30T01:55:34;99477.06;;;21.99;75.57
18819;BME280;9537;45.594;9.294;2022-07-30T01:56:39;99474.94;;;22.01;75.54
18819;BME280;9537;45.594;9.294;2022-07-30T01:57:40;99476.31;;;22.04;75.38
18819;BME280;9537;45.594;9.294;2022-07-30T01:58:45;99475.50;;;22.03;75.51
18819;BME280;9537;45.594;9.294;2022-07-30T01:59:50;99472.31;;;22.07;75.57
18819;BME280;9537;45.594;9.294;2022-07-30T02:00:54;99475.00;;;22.07;75.48
18819;BME280;9537;45.594;9.294;2022-07-30T02:01:58;99473.28;;;22.00;75.63
18819;BME280;9537;45.594;9.294;2022-07-30T02:03:01;99477.34;;;22.03;75.30
18819;BME280;9537;45.594;9.294;2022-07-30T02:04:04;99477.31;;;21.98;74.92
18819;BME280;9537;45.594;9.294;2022-07-30T02:05:06;99478.13;;;21.98;75.06
18819;BME280;9537;45.594;9.294;2022-07-30T02:06:12;99473.78;;;21.97;74.80
18819;BME280;9537;45.594;9.294;2022-07-30T02:07:19;99482.94;;;21.96;74.85
18819;BME280;9537;45.594;9.294;2022-07-30T02:08:29;99479.69;;;21.94;75.02
18819;BME280;9537;45.594;9.294;2022-07-30T02:09:40;99480.44;;;21.90;75.41
18819;BME280;9537;45.594;9.294;2022-07-30T02:10:45;99478.56;;;21.90;75.87
18819;BME280;9537;45.594;9.294;2022-07-30T02:11:51;99477.19;;;21.88;76.19
18819;BME280;9537;45.594;9.294;2022-07-30T02:13:17;99471.00;;;21.87;76.70
18819;BME280;9537;45.594;9.294;2022-07-30T02:14:23;99466.66;;;21.86;77.07
18819;BME280;9537;45.594;9.294;2022-07-30T02:15:28;99469.34;;;21.86;77.41
18819;BME280;9537;45.594;9.294;2022-07-30T02:16:37;99467.25;;;21.88;77.62
18819;BME280;9537;45.594;9.294;2022-07-30T02:17:41;99458.13;;;21.89;77.85
18819;BME280;9537;45.594;9.294;2022-07-30T02:18:50;99453.28;;;21.91;78.03
18819;BME280;9537;45.594;9.294;2022-07-30T02:19:58;99462.16;;;21.92;78.08
18819;BME280;9537;45.594;9.294;2022-07-30T02:21:04;99463.50;;;21.89;77.81
18819;BME280;9537;45.594;9.294;2022-07-30T02:22:08;99451.91;;;21.89;77.65
18819;BME280;9537;45.594;9.294;2022-07-30T02:23:14;99453.22;;;21.86;77.54
18819;BME280;9537;45.594;9.294;2022-07-30T02:24:20;99452.19;;;21.87;78.10
18819;BME280;9537;45.594;9.294;2022-07-30T02:25:22;99442.81;;;21.90;78.28
18819;BME280;9537;45.594;9.294;2022-07-30T02:26:26;99437.44;;;21.90;78.20
18819;BME280;9537;45.594;9.294;2022-07-30T02:27:34;99441.72;;;21.91;78.04
18819;BME280;9537;45.594;9.294;2022-07-30T02:28:37;99443.09;;;21.93;78.18
18819;BME280;9537;45.594;9.294;2022-07-30T02:29:41;99439.91;;;21.96;78.28
18819;BME280;9537;45.594;9.294;2022-07-30T02:30:46;99434.53;;;21.96;78.25
18819;BME280;9537;45.594;9.294;2022-07-30T02:31:49;99443.97;;;21.99;78.22
18819;BME280;9537;45.594;9.294;2022-07-30T02:32:54;99449.00;;;21.90;79.01
18819;BME280;9537;45.594;9.294;2022-07-30T02:34:00;99460.63;;;21.96;78.83
18819;BME280;9537;45.594;9.294;2022-07-30T02:35:07;99453.34;;;21.96;78.74
18819;BME280;9537;45.594;9.294;2022-07-30T02:36:11;99449.84;;;21.96;78.60
18819;BME280;9537;45.594;9.294;2022-07-30T02:37:14;99450.94;;;21.95;78.76
18819;BME280;9537;45.594;9.294;2022-07-30T02:38:17;99449.06;;;21.95;78.52
18819;BME280;9537;45.594;9.294;2022-07-30T02:39:20;99444.47;;;21.96;78.59
18819;BME280;9537;45.594;9.294;2022-07-30T02:40:23;99449.59;;;21.97;78.83
18819;BME280;9537;45.594;9.294;2022-07-30T02:41:27;99456.03;;;21.96;78.60
18819;BME280;9537;45.594;9.294;2022-07-30T02:42:32;99454.72;;;21.99;78.21
18819;BME280;9537;45.594;9.294;2022-07-30T02:43:34;99447.91;;;21.91;76.87
18819;BME280;9537;45.594;9.294;2022-07-30T02:44:37;99439.63;;;21.93;76.58
18819;BME280;9537;45.594;9.294;2022-07-30T02:45:45;99429.91;;;21.92;76.42
18819;BME280;9537;45.594;9.294;2022-07-30T02:46:48;99429.38;;;21.90;76.57
18819;BME280;9537;45.594;9.294;2022-07-30T02:47:53;99435.59;;;21.95;76.59
18819;BME280;9537;45.594;9.294;2022-07-30T02:48:57;99431.84;;;21.96;76.70
18819;BME280;9537;45.594;9.294;2022-07-30T02:49:59;99426.97;;;21.93;77.23
18819;BME280;9537;45.594;9.294;2022-07-30T02:51:03;99432.91;;;21.95;77.37
18819;BME280;9537;45.594;9.294;2022-07-30T02:52:05;99431.03;;;21.96;77.72
18819;BME280;9537;45.594;9.294;2022-07-30T02:53:13;99432.13;;;21.95;78.11
18819;BME280;9537;45.594;9.294;2022-07-30T02:54:17;99427.47;;;21.90;78.28
18819;BME280;9537;45.594;9.294;2022-07-30T02:55:21;99427.28;;;21.97;77.27
18819;BME280;9537;45.594;9.294;2022-07-30T02:56:23;99425.59;;;21.91;77.13
18819;BME280;9537;45.594;9.294;2022-07-30T02:57:27;99421.84;;;21.92;76.95
18819;BME280;9537;45.594;9.294;2022-07-30T02:58:31;99419.41;;;21.90;76.81
18819;BME280;9537;45.594;9.294;2022-07-30T02:59:35;99431.72;;;21.86;76.93
18819;BME280;9537;45.594;9.294;2022-07-30T03:00:37;99426.91;;;21.88;76.94
18819;BME280;9537;45.594;9.294;2022-07-30T03:01:41;99437.44;;;21.90;76.90
18819;BME280;9537;45.594;9.294;2022-07-30T03:02:44;99435.25;;;21.87;76.20
18819;BME280;9537;45.594;9.294;2022-07-30T03:03:47;99431.34;;;21.77;76.07
18819;BME280;9537;45.594;9.294;2022-07-30T03:04:49;99429.50;;;21.78;75.73
18819;BME280;9537;45.594;9.294;2022-07-30T03:05:51;99421.63;;;21.71;75.96
18819;BME280;9537;45.594;9.294;2022-07-30T03:06:53;99426.69;;;21.68;76.42
18819;BME280;9537;45.594;9.294;2022-07-30T03:07:57;99425.09;;;21.72;76.39
18819;BME280;9537;45.594;9.294;2022-07-30T03:09:01;99419.78;;;21.77;76.32
18819;BME280;9537;45.594;9.294;2022-07-30T03:10:04;99416.81;;;21.73;76.64
18819;BME280;9537;45.594;9.294;2022-07-30T03:11:09;99416.56;;;21.75;76.71
18819;BME280;9537;45.594;9.294;2022-07-30T03:12:11;99419.25;;;21.75;76.61
18819;BME280;9537;45.594;9.294;2022-07-30T03:13:15;99420.31;;;21.74;76.25
18819;BME280;9537;45.594;9.294;2022-07-30T03:14:19;99417.88;;;21.72;76.30
18819;BME280;9537;45.594;9.294;2022-07-30T03:15:21;99414.63;;;21.70;76.17
18819;BME280;9537;45.594;9.294;2022-07-30T03:16:23;99415.94;;;21.68;76.15
18819;BME280;9537;45.594;9.294;2022-07-30T03:17:27;99411.88;;;21.65;76.19
18819;BME280;9537;45.594;9.294;2022-07-30T03:18:33;99407.31;;;21.66;76.40
18819;BME280;9537;45.594;9.294;2022-07-30T03:19:36;99408.13;;;21.66;76.54
18819;BME280;9537;45.594;9.294;2022-07-30T03:20:39;99414.31;;;21.67;76.95
18819;BME280;9537;45.594;9.294;2022-07-30T03:21:42;99406.81;;;21.69;77.17
18819;BME280;9537;45.594;9.294;2022-07-30T03:22:48;99407.63;;;21.69;77.31
18819;BME280;9537;45.594;9.294;2022-07-30T03:23:54;99408.13;;;21.66;77.86
18819;BME280;9537;45.594;9.294;2022-07-30T03:24:56;99410.84;;;21.66;78.01
18819;BME280;9537;45.594;9.294;2022-07-30T03:26:00;99409.50;;;21.69;77.89
18819;BME280;9537;45.594;9.294;2022-07-30T03:27:02;99408.44;;;21.70;77.94
18819;BME280;9537;45.594;9.294;2022-07-30T03:28:05;99410.56;;;21.68;78.23
18819;BME280;9537;45.594;9.294;2022-07-30T03:29:07;99410.31;;;21.69;78.43
18819;BME280;9537;45.594;9.294;2022-07-30T03:30:11;99414.34;;;21.72;78.41
18819;BME280;9537;45.594;9.294;2022-07-30T03:31:13;99419.50;;;21.73;78.51
18819;BME280;9537;45.594;9.294;2022-07-30T03:32:16;99418.94;;;21.71;78.54
18819;BME280;9537;45.594;9.294;2022-07-30T03:33:17;99417.63;;;21.74;78.17
18819;BME280;9537;45.594;9.294;2022-07-30T03:34:20;99407.94;;;21.73;78.23
18819;BME280;9537;45.594;9.294;2022-07-30T03:35:22;99409.56;;;21.74;77.80
18819;BME280;9537;45.594;9.294;2022-07-30T03:36:26;99411.66;;;21.72;77.27
18819;BME280;9537;45.594;9.294;2022-07-30T03:37:29;99406.81;;;21.69;76.60
18819;BME280;9537;45.594;9.294;2022-07-30T03:38:31;99406.00;;;21.68;76.76
18819;BME280;9537;45.594;9.294;2022-07-30T03:39:34;99410.31;;;21.69;76.44
18819;BME280;9537;45.594;9.294;2022-07-30T03:40:35;99410.56;;;21.68;76.61
18819;BME280;9537;45.594;9.294;2022-07-30T03:41:38;99414.06;;;21.68;76.46
18819;BME280;9537;45.594;9.294;2022-07-30T03:42:39;99420.19;;;21.64;76.37
18819;BME280;9537;45.594;9.294;2022-07-30T03:43:42;99414.84;;;21.64;75.81
18819;BME280;9537;45.594;9.294;2022-07-30T03:44:43;99419.94;;;21.65;75.70
18819;BME280;9537;45.594;9.294;2022-07-30T03:45:48;99429.25;;;21.57;75.55
18819;BME280;9537;45.594;9.294;2022-07-30T03:46:51;99425.25;;;21.60;75.65
18819;BME280;9537;45.594;9.294;2022-07-30T03:47:54;99429.56;;;21.61;75.54
18819;BME280;9537;45.594;9.294;2022-07-30T03:48:56;99422.81;;;21.58;75.94
18819;BME280;9537;45.594;9.294;2022-07-30T03:49:59;99423.31;;;21.55;76.24
18819;BME280;9537;45.594;9.294;2022-07-30T03:51:01;99427.06;;;21.54;76.40
18819;BME280;9537;45.594;9.294;2022-07-30T03:52:04;99418.75;;;21.56;76.55
18819;BME280;9537;45.594;9.294;2022-07-30T03:53:07;99424.34;;;21.49;77.37
18819;BME280;9537;45.594;9.294;2022-07-30T03:54:09;99428.69;;;21.55;76.95
18819;BME280;9537;45.594;9.294;2022-07-30T03:55:12;99429.75;;;21.54;76.49
18819;BME280;9537;45.594;9.294;2022-07-30T03:56:14;99426.53;;;21.52;76.27
18819;BME280;9537;45.594;9.294;2022-07-30T03:57:15;99421.16;;;21.52;75.99
18819;BME280;9537;45.594;9.294;2022-07-30T03:58:17;99421.16;;;21.52;75.66
18819;BME280;9537;45.594;9.294;2022-07-30T03:59:18;99422.19;;;21.51;75.46
18819;BME280;9537;45.594;9.294;2022-07-30T04:00:20;99416.56;;;21.53;75.65
18819;BME280;9537;45.594;9.294;2022-07-30T04:01:25;99414.38;;;21.50;75.85
18819;BME280;9537;45.594;9.294;2022-07-30T04:02:27;99422.75;;;21.53;75.88
18819;BME280;9537;45.594;9.294;2022-07-30T04:03:30;99422.19;;;21.51;76.12
18819;BME280;9537;45.594;9.294;2022-07-30T04:04:32;99421.69;;;21.54;76.36
18819;BME280;9537;45.594;9.294;2022-07-30T04:05:33;99423.84;;;21.52;77.06
18819;BME280;9537;45.594;9.294;2022-07-30T04:06:35;99423.56;;;21.54;77.22
18819;BME280;9537;45.594;9.294;2022-07-30T04:07:39;99421.16;;;21.52;77.49
18819;BME280;9537;45.594;9.294;2022-07-30T04:08:41;99426.25;;;21.54;77.51
18819;BME280;9537;45.594;9.294;2022-07-30T04:09:42;99430.09;;;21.58;76.87
18819;BME280;9537;45.594;9.294;2022-07-30T04:10:44;99428.13;;;21.53;76.48
18819;BME280;9537;45.594;9.294;2022-07-30T04:11:45;99426.53;;;21.52;76.21
18819;BME280;9537;45.594;9.294;2022-07-30T04:12:47;99431.31;;;21.50;75.98
18819;BME280;9537;45.594;9.294;2022-07-30T04:13:49;99431.00;;;21.47;75.93
18819;BME280;9537;45.594;9.294;2022-07-30T04:14:50;99431.75;;;21.42;76.14
18819;BME280;9537;45.594;9.294;2022-07-30T04:15:58;99428.00;;;21.43;75.72
18819;BME280;9537;45.594;9.294;2022-07-30T04:17:08;99424.50;;;21.43;75.78
18819;BME280;9537;45.594;9.294;2022-07-30T04:18:14;99426.38;;;21.42;75.64
18819;BME280;9537;45.594;9.294;2022-07-30T04:19:25;99436.56;;;21.40;75.80
18819;BME280;9537;45.594;9.294;2022-07-30T04:20:33;99429.84;;;21.38;75.98
18819;BME280;9537;45.594;9.294;2022-07-30T04:21:37;99433.88;;;21.40;75.77
18819;BME280;9537;45.594;9.294;2022-07-30T04:22:41;99433.56;;;21.36;75.52
18819;BME280;9537;45.594;9.294;2022-07-30T04:23:44;99425.81;;;21.40;75.15
18819;BME280;9537;45.594;9.294;2022-07-30T04:24:47;99430.88;;;21.36;74.99
18819;BME280;9537;45.594;9.294;2022-07-30T04:25:49;99428.84;;;21.27;75.54
18819;BME280;9537;45.594;9.294;2022-07-30T04:26:52;99431.69;;;21.37;75.33
18819;BME280;9537;45.594;9.294;2022-07-30T04:27:53;99432.16;;;21.34;75.52
18819;BME280;9537;45.594;9.294;2022-07-30T04:28:56;99432.97;;;21.34;75.52
18819;BME280;9537;45.594;9.294;2022-07-30T04:29:57;99423.28;;;21.33;75.77
18819;BME280;9537;45.594;9.294;2022-07-30T04:31:00;99435.41;;;21.36;76.05
18819;BME280;9537;45.594;9.294;2022-07-30T04:32:01;99441.38;;;21.38;75.87
18819;BME280;9537;45.594;9.294;2022-07-30T04:33:04;99440.22;;;21.34;75.35
18819;BME280;9537;45.594;9.294;2022-07-30T04:34:07;99431.59;;;21.32;75.51
18819;BME280;9537;45.594;9.294;2022-07-30T04:35:12;99433.22;;;21.33;75.48
18819;BME280;9537;45.594;9.294;2022-07-30T04:36:14;99438.81;;;21.31;75.53
18819;BME280;9537;45.594;9.294;2022-07-30T04:37:16;99436.13;;;21.31;75.97
18819;BME280;9537;45.594;9.294;2022-07-30T04:38:19;99437.78;;;21.32;75.77
18819;BME280;9537;45.594;9.294;2022-07-30T04:39:21;99440.22;;;21.34;76.40
18819;BME280;9537;45.594;9.294;2022-07-30T04:40:23;99445.56;;;21.34;76.84
18819;BME280;9537;45.594;9.294;2022-07-30T04:41:24;99444.53;;;21.35;77.23
18819;BME280;9537;45.594;9.294;2022-07-30T04:42:28;99455.06;;;21.36;77.09
18819;BME280;9537;45.594;9.294;2022-07-30T04:43:30;99451.53;;;21.36;76.80
18819;BME280;9537;45.594;9.294;2022-07-30T04:44:31;99452.38;;;21.36;76.53
18819;BME280;9537;45.594;9.294;2022-07-30T04:45:34;99455.06;;;21.36;76.09
18819;BME280;9537;45.594;9.294;2022-07-30T04:46:35;99456.00;;;21.30;75.49
18819;BME280;9537;45.594;9.294;2022-07-30T04:47:37;99460.00;;;21.28;75.75
18819;BME280;9537;45.594;9.294;2022-07-30T04:48:39;99455.13;;;21.25;75.99
18819;BME280;9537;45.594;9.294;2022-07-30T04:49:42;99466.13;;;21.23;76.31
18819;BME280;9537;45.594;9.294;2022-07-30T04:50:46;99469.63;;;21.24;76.62
18819;BME280;9537;45.594;9.294;2022-07-30T04:51:49;99465.06;;;21.24;76.92
18819;BME280;9537;45.594;9.294;2022-07-30T04:52:52;99470.66;;;21.23;77.74
18819;BME280;9537;45.594;9.294;2022-07-30T04:53:57;99469.28;;;21.20;77.73
18819;BME280;9537;45.594;9.294;2022-07-30T04:55:03;99465.56;;;21.21;77.72
18819;BME280;9537;45.594;9.294;2022-07-30T04:56:06;99471.75;;;21.22;77.53
18819;BME280;9537;45.594;9.294;2022-07-30T04:57:09;99470.63;;;21.18;77.64
18819;BME280;9537;45.594;9.294;2022-07-30T04:58:12;99468.56;;;21.25;77.37
18819;BME280;9537;45.594;9.294;2022-07-30T04:59:15;99473.13;;;21.24;77.73
18819;BME280;9537;45.594;9.294;2022-07-30T05:00:18;99476.03;;;21.23;78.18
18819;BME280;9537;45.594;9.294;2022-07-30T05:01:22;99472.84;;;21.26;78.51
18819;BME280;9537;45.594;9.294;2022-07-30T05:02:28;99474.59;;;21.32;78.38
18819;BME280;9537;45.594;9.294;2022-07-30T05:03:30;99469.75;;;21.34;78.62
18819;BME280;9537;45.594;9.294;2022-07-30T05:04:37;99474.91;;;21.35;78.70
18819;BME280;9537;45.594;9.294;2022-07-30T05:05:39;99465.56;;;21.38;78.74
18819;BME280;9537;45.594;9.294;2022-07-30T05:06:42;99477.34;;;21.37;78.72
18819;BME280;9537;45.594;9.294;2022-07-30T05:07:44;99465.56;;;21.38;78.91
18819;BME280;9537;45.594;9.294;2022-07-30T05:08:47;99468.78;;;21.40;78.96
18819;BME280;9537;45.594;9.294;2022-07-30T05:09:47;99466.69;;;21.42;79.28
18819;BME280;9537;45.594;9.294;2022-07-30T05:10:50;99469.13;;;21.44;79.27
18819;BME280;9537;45.594;9.294;2022-07-30T05:11:51;99461.63;;;21.46;79.34
18819;BME280;9537;45.594;9.294;2022-07-30T05:12:53;99475.88;;;21.46;79.16
18819;BME280;9537;45.594;9.294;2022-07-30T05:13:54;99474.00;;;21.47;79.15
18819;BME280;9537;45.594;9.294;2022-07-30T05:14:56;99476.94;;;21.45;79.32
18819;BME280;9537;45.594;9.294;2022-07-30T05:15:57;99474.25;;;21.45;79.46
18819;BME280;9537;45.594;9.294;2022-07-30T05:16:59;99467.81;;;21.46;79.41
18819;BME280;9537;45.594;9.294;2022-07-30T05:18:00;99478.56;;;21.46;79.39
18819;BME280;9537;45.594;9.294;2022-07-30T05:19:02;99475.63;;;21.48;79.36
18819;BME280;9537;45.594;9.294;2022-07-30T05:20:06;99477.81;;;21.51;79.24
18819;BME280;9537;45.594;9.294;2022-07-30T05:21:09;99476.19;;;21.50;79.51
18819;BME280;9537;45.594;9.294;2022-07-30T05:22:10;99470.00;;;21.49;79.61
18819;BME280;9537;45.594;9.294;2022-07-30T05:23:12;99474.06;;;21.52;79.66
18819;BME280;9537;45.594;9.294;2022-07-30T05:24:13;99475.69;;;21.53;79.95
18819;BME280;9537;45.594;9.294;2022-07-30T05:25:15;99470.31;;;21.53;80.08
18819;BME280;9537;45.594;9.294;2022-07-30T05:26:18;99482.13;;;21.52;80.58
18819;BME280;9537;45.594;9.294;2022-07-30T05:27:21;99487.00;;;21.55;80.60
18819;BME280;9537;45.594;9.294;2022-07-30T05:28:22;99484.06;;;21.56;80.99
18819;BME280;9537;45.594;9.294;2022-07-30T05:29:26;99483.00;;;21.57;81.28
18819;BME280;9537;45.594;9.294;2022-07-30T05:30:27;99489.44;;;21.56;81.46
18819;BME280;9537;45.594;9.294;2022-07-30T05:31:29;99481.13;;;21.58;81.55
18819;BME280;9537;45.594;9.294;2022-07-30T05:32:29;99484.13;;;21.62;81.54
18819;BME280;9537;45.594;9.294;2022-07-30T05:33:31;99491.13;;;21.63;81.63
18819;BME280;9537;45.594;9.294;2022-07-30T05:34:32;99488.19;;;21.64;81.63
18819;BME280;9537;45.594;9.294;2022-07-30T05:35:36;99488.19;;;21.64;81.99
18819;BME280;9537;45.594;9.294;2022-07-30T05:36:37;99483.41;;;21.66;81.97
18819;BME280;9537;45.594;9.294;2022-07-30T05:37:39;99486.63;;;21.68;82.33
18819;BME280;9537;45.594;9.294;2022-07-30T05:38:40;99490.69;;;21.71;82.78
18819;BME280;9537;45.594;9.294;2022-07-30T05:39:42;99485.31;;;21.71;83.08